sensor_id;sensor_type;location;lat;lon;timestamp;P1;durP1;ratioP1;P2;durP2;ratioP2
21420;SDS011;10871;50.144;8.428;2023-01-29T00:01:15;7.22;;;6.00;;
21420;SDS011;10871;50.144;8.428;2023-01-29T00:03:42;7.90;;;6.05;;
21420;SDS011;10871;50.144;8.428;2023-01-29T00:06:09;7.85;;;5.93;;
21420;SDS011;10871;50.144;8.428;2023-01-29T00:08:35;10.63;;;6.53;;
21420;SDS011;10871;50.144;8.428;2023-01-29T00:11:03;7.03;;;6.18;;
21420;SDS011;10871;50.144;8.428;2023-01-29T00:13:29;10.35;;;6.18;;
21420;SDS011;10871;50.144;8.428;2023-01-29T00:15:56;8.13;;;5.90;;
21420;SDS011;10871;50.144;8.428;2023-01-29T00:18:23;8.93;;;5.97;;
21420;SDS011;10871;50.144;8.428;2023-01-29T00:20:50;8.88;;;6.80;;
21420;SDS011;10871;50.144;8.428;2023-01-29T00:23:16;9.60;;;6.60;;
21420;SDS011;10871;50.144;8.428;2023-01-29T00:25:43;9.20;;;5.97;;
21420;SDS011;10871;50.144;8.428;2023-01-29T00:28:09;9.88;;;5.95;;
21420;SDS011;10871;50.144;8.428;2023-01-29T00:30:36;8.48;;;5.65;;
21420;SDS011;10871;50.144;8.428;2023-01-29T00:33:03;7.97;;;5.80;;
21420;SDS011;10871;50.144;8.428;2023-01-29T00:35:30;7.57;;;5.45;;
21420;SDS011;10871;50.144;8.428;2023-01-29T00:37:57;7.53;;;5.65;;
21420;SDS011;10871;50.144;8.428;2023-01-29T00:40:24;6.03;;;5.43;;
21420;SDS011;10871;50.144;8.428;2023-01-29T00:42:51;6.22;;;5.32;;
21420;SDS011;10871;50.144;8.428;2023-01-29T00:45:37;8.35;;;5.50;;
21420;SDS011;10871;50.144;8.428;2023-01-29T00:48:04;7.35;;;5.38;;
21420;SDS011;10871;50.144;8.428;2023-01-29T00:50:31;8.52;;;5.03;;
21420;SDS011;10871;50.144;8.428;2023-01-29T00:52:57;7.22;;;5.60;;
21420;SDS011;10871;50.144;8.428;2023-01-29T00:55:23;6.15;;;5.30;;
21420;SDS011;10871;50.144;8.428;2023-01-29T00:57:50;7.22;;;5.50;;
21420;SDS011;10871;50.144;8.428;2023-01-29T01:00:17;6.32;;;5.63;;
21420;SDS011;10871;50.144;8.428;2023-01-29T01:02:44;6.13;;;5.50;;
21420;SDS011;10871;50.144;8.428;2023-01-29T01:05:29;7.13;;;5.63;;
21420;SDS011;10871;50.144;8.428;2023-01-29T01:07:56;6.90;;;5.38;;
21420;SDS011;10871;50.144;8.428;2023-01-29T01:12:54;7.28;;;5.60;;
21420;SDS011;10871;50.144;8.428;2023-01-29T01:15:21;6.07;;;5.45;;
21420;SDS011;10871;50.144;8.428;2023-01-29T01:17:50;6.78;;;5.68;;
21420;SDS011;10871;50.144;8.428;2023-01-29T01:20:17;6.93;;;5.68;;
21420;SDS011;10871;50.144;8.428;2023-01-29T01:22:44;7.95;;;5.85;;
21420;SDS011;10871;50.144;8.428;2023-01-29T01:25:11;6.32;;;5.50;;
21420;SDS011;10871;50.144;8.428;2023-01-29T01:27:37;8.27;;;5.43;;
21420;SDS011;10871;50.144;8.428;2023-01-29T01:30:07;7.57;;;5.47;;
21420;SDS011;10871;50.144;8.428;2023-01-29T01:32:33;7.00;;;5.32;;
21420;SDS011;10871;50.144;8.428;2023-01-29T01:35:00;7.35;;;5.63;;
21420;SDS011;10871;50.144;8.428;2023-01-29T01:37:26;6.47;;;5.38;;
21420;SDS011;10871;50.144;8.428;2023-01-29T01:39:52;9.27;;;6.00;;
21420;SDS011;10871;50.144;8.428;2023-01-29T01:42:31;6.82;;;5.72;;
21420;SDS011;10871;50.144;8.428;2023-01-29T01:44:59;8.07;;;5.78;;
21420;SDS011;10871;50.144;8.428;2023-01-29T01:47:34;7.45;;;5.55;;
21420;SDS011;10871;50.144;8.428;2023-01-29T01:50:38;8.85;;;5.90;;
21420;SDS011;10871;50.144;8.428;2023-01-29T01:53:07;9.60;;;6.28;;
21420;SDS011;10871;50.144;8.428;2023-01-29T01:55:34;6.63;;;5.93;;
21420;SDS011;10871;50.144;8.428;2023-01-29T01:58:05;9.18;;;6.00;;
21420;SDS011;10871;50.144;8.428;2023-01-29T02:00:33;6.38;;;5.22;;
21420;SDS011;10871;50.144;8.428;2023-01-29T02:03:00;8.27;;;6.53;;
21420;SDS011;10871;50.144;8.428;2023-01-29T02:05:47;8.18;;;6.45;;
21420;SDS011;10871;50.144;8.428;2023-01-29T02:08:38;7.70;;;5.72;;
21420;SDS011;10871;50.144;8.428;2023-01-29T02:11:26;7.18;;;5.68;;
21420;SDS011;10871;50.144;8.428;2023-01-29T02:13:52;8.93;;;6.50;;
21420;SDS011;10871;50.144;8.428;2023-01-29T02:16:23;8.15;;;6.38;;
21420;SDS011;10871;50.144;8.428;2023-01-29T02:18:50;7.63;;;5.95;;
21420;SDS011;10871;50.144;8.428;2023-01-29T02:21:24;8.45;;;6.60;;
21420;SDS011;10871;50.144;8.428;2023-01-29T02:26:36;8.55;;;6.55;;
21420;SDS011;10871;50.144;8.428;2023-01-29T02:29:17;9.30;;;6.43;;
21420;SDS011;10871;50.144;8.428;2023-01-29T02:32:03;7.88;;;6.32;;
21420;SDS011;10871;50.144;8.428;2023-01-29T02:34:42;7.68;;;5.50;;
21420;SDS011;10871;50.144;8.428;2023-01-29T02:40:46;11.63;;;7.00;;
21420;SDS011;10871;50.144;8.428;2023-01-29T02:43:21;9.00;;;6.90;;
21420;SDS011;10871;50.144;8.428;2023-01-29T02:46:08;9.10;;;6.85;;
21420;SDS011;10871;50.144;8.428;2023-01-29T02:48:44;9.32;;;6.32;;
21420;SDS011;10871;50.144;8.428;2023-01-29T02:51:16;7.40;;;6.28;;
21420;SDS011;10871;50.144;8.428;2023-01-29T02:56:39;9.30;;;7.57;;
21420;SDS011;10871;50.144;8.428;2023-01-29T02:59:17;11.52;;;8.15;;
21420;SDS011;10871;50.144;8.428;2023-01-29T03:01:47;9.57;;;7.25;;
21420;SDS011;10871;50.144;8.428;2023-01-29T03:04:18;9.10;;;7.03;;
21420;SDS011;10871;50.144;8.428;2023-01-29T03:06:48;8.95;;;6.63;;
21420;SDS011;10871;50.144;8.428;2023-01-29T03:09:33;8.93;;;6.72;;
21420;SDS011;10871;50.144;8.428;2023-01-29T03:12:03;9.13;;;7.00;;
21420;SDS011;10871;50.144;8.428;2023-01-29T03:14:46;8.45;;;7.25;;
21420;SDS011;10871;50.144;8.428;2023-01-29T03:17:35;9.20;;;6.85;;
21420;SDS011;10871;50.144;8.428;2023-01-29T03:20:03;9.07;;;6.85;;
21420;SDS011;10871;50.144;8.428;2023-01-29T03:22:33;8.32;;;6.75;;
21420;SDS011;10871;50.144;8.428;2023-01-29T03:25:00;11.95;;;7.85;;
21420;SDS011;10871;50.144;8.428;2023-01-29T03:27:51;11.07;;;7.75;;
21420;SDS011;10871;50.144;8.428;2023-01-29T03:30:46;12.35;;;8.55;;
21420;SDS011;10871;50.144;8.428;2023-01-29T03:33:46;12.75;;;8.15;;
21420;SDS011;10871;50.144;8.428;2023-01-29T03:36:20;12.98;;;9.15;;
21420;SDS011;10871;50.144;8.428;2023-01-29T03:41:37;12.40;;;8.15;;
21420;SDS011;10871;50.144;8.428;2023-01-29T03:46:54;12.02;;;8.30;;
21420;SDS011;10871;50.144;8.428;2023-01-29T03:49:29;12.57;;;8.68;;
21420;SDS011;10871;50.144;8.428;2023-01-29T03:54:38;13.18;;;9.00;;
21420;SDS011;10871;50.144;8.428;2023-01-29T03:57:16;13.05;;;8.95;;
21420;SDS011;10871;50.144;8.428;2023-01-29T03:59:48;11.57;;;8.30;;
21420;SDS011;10871;50.144;8.428;2023-01-29T04:02:50;11.60;;;8.23;;
21420;SDS011;10871;50.144;8.428;2023-01-29T04:05:19;13.40;;;8.57;;
21420;SDS011;10871;50.144;8.428;2023-01-29T04:08:07;11.48;;;8.55;;
21420;SDS011;10871;50.144;8.428;2023-01-29T04:10:37;11.90;;;8.57;;
21420;SDS011;10871;50.144;8.428;2023-01-29T04:13:05;14.80;;;9.38;;
21420;SDS011;10871;50.144;8.428;2023-01-29T04:15:33;15.80;;;9.65;;
21420;SDS011;10871;50.144;8.428;2023-01-29T04:18:01;14.07;;;9.35;;
21420;SDS011;10871;50.144;8.428;2023-01-29T04:20:48;13.30;;;9.68;;
21420;SDS011;10871;50.144;8.428;2023-01-29T04:23:18;12.55;;;9.35;;
21420;SDS011;10871;50.144;8.428;2023-01-29T04:25:51;15.23;;;9.65;;
21420;SDS011;10871;50.144;8.428;2023-01-29T04:28:20;13.00;;;9.27;;
21420;SDS011;10871;50.144;8.428;2023-01-29T04:33:32;14.23;;;9.27;;
21420;SDS011;10871;50.144;8.428;2023-01-29T04:44:08;14.98;;;10.27;;
21420;SDS011;10871;50.144;8.428;2023-01-29T04:52:07;14.48;;;10.63;;
21420;SDS011;10871;50.144;8.428;2023-01-29T05:02:24;17.10;;;10.93;;
21420;SDS011;10871;50.144;8.428;2023-01-29T05:04:51;16.58;;;11.13;;
21420;SDS011;10871;50.144;8.428;2023-01-29T05:07:19;14.90;;;10.40;;
21420;SDS011;10871;50.144;8.428;2023-01-29T05:09:46;16.13;;;11.77;;
21420;SDS011;10871;50.144;8.428;2023-01-29T05:12:13;16.15;;;11.40;;
21420;SDS011;10871;50.144;8.428;2023-01-29T05:14:41;18.80;;;11.48;;
21420;SDS011;10871;50.144;8.428;2023-01-29T05:17:09;19.50;;;12.32;;
21420;SDS011;10871;50.144;8.428;2023-01-29T05:19:37;18.30;;;12.18;;
21420;SDS011;10871;50.144;8.428;2023-01-29T05:22:04;17.75;;;11.57;;
21420;SDS011;10871;50.144;8.428;2023-01-29T05:24:31;18.52;;;11.80;;
21420;SDS011;10871;50.144;8.428;2023-01-29T05:26:57;18.67;;;11.30;;
21420;SDS011;10871;50.144;8.428;2023-01-29T05:29:44;18.55;;;11.48;;
21420;SDS011;10871;50.144;8.428;2023-01-29T05:32:10;16.02;;;11.23;;
21420;SDS011;10871;50.144;8.428;2023-01-29T05:34:36;18.92;;;11.65;;
21420;SDS011;10871;50.144;8.428;2023-01-29T05:37:03;18.15;;;11.85;;
21420;SDS011;10871;50.144;8.428;2023-01-29T05:39:29;16.67;;;11.25;;
21420;SDS011;10871;50.144;8.428;2023-01-29T05:41:55;19.83;;;13.73;;
21420;SDS011;10871;50.144;8.428;2023-01-29T05:44:22;17.15;;;11.88;;
21420;SDS011;10871;50.144;8.428;2023-01-29T05:46:49;18.33;;;12.43;;
21420;SDS011;10871;50.144;8.428;2023-01-29T05:49:16;18.00;;;12.75;;
21420;SDS011;10871;50.144;8.428;2023-01-29T05:51:43;18.70;;;12.95;;
21420;SDS011;10871;50.144;8.428;2023-01-29T05:54:10;17.55;;;12.60;;
21420;SDS011;10871;50.144;8.428;2023-01-29T05:56:37;20.13;;;12.20;;
21420;SDS011;10871;50.144;8.428;2023-01-29T05:59:03;16.88;;;10.88;;
21420;SDS011;10871;50.144;8.428;2023-01-29T06:01:29;21.42;;;12.23;;
21420;SDS011;10871;50.144;8.428;2023-01-29T06:03:56;18.95;;;11.55;;
21420;SDS011;10871;50.144;8.428;2023-01-29T06:06:22;18.05;;;11.32;;
21420;SDS011;10871;50.144;8.428;2023-01-29T06:08:48;18.13;;;11.63;;
21420;SDS011;10871;50.144;8.428;2023-01-29T06:11:15;18.80;;;12.20;;
21420;SDS011;10871;50.144;8.428;2023-01-29T06:13:43;18.95;;;12.30;;
21420;SDS011;10871;50.144;8.428;2023-01-29T06:16:10;17.73;;;12.13;;
21420;SDS011;10871;50.144;8.428;2023-01-29T06:18:37;18.67;;;11.95;;
21420;SDS011;10871;50.144;8.428;2023-01-29T06:21:04;18.38;;;12.73;;
21420;SDS011;10871;50.144;8.428;2023-01-29T06:23:31;17.35;;;11.38;;
21420;SDS011;10871;50.144;8.428;2023-01-29T06:25:58;16.33;;;11.82;;
21420;SDS011;10871;50.144;8.428;2023-01-29T06:28:24;19.13;;;12.02;;
21420;SDS011;10871;50.144;8.428;2023-01-29T06:30:51;18.30;;;12.02;;
21420;SDS011;10871;50.144;8.428;2023-01-29T06:33:17;18.83;;;11.52;;
21420;SDS011;10871;50.144;8.428;2023-01-29T06:35:43;18.27;;;11.27;;
21420;SDS011;10871;50.144;8.428;2023-01-29T06:38:09;18.05;;;12.35;;
21420;SDS011;10871;50.144;8.428;2023-01-29T06:40:37;18.30;;;11.93;;
21420;SDS011;10871;50.144;8.428;2023-01-29T06:43:03;17.33;;;11.73;;
21420;SDS011;10871;50.144;8.428;2023-01-29T06:45:29;20.90;;;12.57;;
21420;SDS011;10871;50.144;8.428;2023-01-29T06:47:56;20.23;;;12.35;;
21420;SDS011;10871;50.144;8.428;2023-01-29T06:50:25;18.45;;;12.00;;
21420;SDS011;10871;50.144;8.428;2023-01-29T06:52:51;18.90;;;12.20;;
21420;SDS011;10871;50.144;8.428;2023-01-29T06:55:18;17.65;;;12.23;;
21420;SDS011;10871;50.144;8.428;2023-01-29T06:57:44;22.80;;;12.82;;
21420;SDS011;10871;50.144;8.428;2023-01-29T07:00:11;20.27;;;13.25;;
21420;SDS011;10871;50.144;8.428;2023-01-29T07:02:37;20.85;;;12.02;;
21420;SDS011;10871;50.144;8.428;2023-01-29T07:05:03;19.33;;;12.68;;
21420;SDS011;10871;50.144;8.428;2023-01-29T07:07:30;21.33;;;13.00;;
21420;SDS011;10871;50.144;8.428;2023-01-29T07:09:56;22.05;;;12.82;;
21420;SDS011;10871;50.144;8.428;2023-01-29T07:12:22;19.33;;;13.35;;
21420;SDS011;10871;50.144;8.428;2023-01-29T07:14:49;19.80;;;12.32;;
21420;SDS011;10871;50.144;8.428;2023-01-29T07:17:15;18.27;;;12.05;;
21420;SDS011;10871;50.144;8.428;2023-01-29T07:19:41;19.55;;;12.20;;
21420;SDS011;10871;50.144;8.428;2023-01-29T07:22:08;21.73;;;12.32;;
21420;SDS011;10871;50.144;8.428;2023-01-29T07:24:34;19.20;;;12.45;;
21420;SDS011;10871;50.144;8.428;2023-01-29T07:27:00;20.52;;;12.50;;
21420;SDS011;10871;50.144;8.428;2023-01-29T07:29:26;18.23;;;11.70;;
21420;SDS011;10871;50.144;8.428;2023-01-29T07:31:53;15.95;;;10.90;;
21420;SDS011;10871;50.144;8.428;2023-01-29T07:34:19;19.60;;;11.70;;
21420;SDS011;10871;50.144;8.428;2023-01-29T07:36:46;17.30;;;11.45;;
21420;SDS011;10871;50.144;8.428;2023-01-29T07:39:12;18.50;;;10.88;;
21420;SDS011;10871;50.144;8.428;2023-01-29T07:41:38;17.50;;;11.43;;
21420;SDS011;10871;50.144;8.428;2023-01-29T07:44:13;22.23;;;11.50;;
21420;SDS011;10871;50.144;8.428;2023-01-29T07:46:40;16.05;;;10.82;;
21420;SDS011;10871;50.144;8.428;2023-01-29T07:49:06;17.63;;;10.98;;
21420;SDS011;10871;50.144;8.428;2023-01-29T07:51:32;16.75;;;11.00;;
21420;SDS011;10871;50.144;8.428;2023-01-29T07:53:59;15.35;;;10.50;;
21420;SDS011;10871;50.144;8.428;2023-01-29T07:56:25;17.23;;;11.20;;
21420;SDS011;10871;50.144;8.428;2023-01-29T07:58:51;17.85;;;11.00;;
21420;SDS011;10871;50.144;8.428;2023-01-29T08:01:18;15.40;;;10.45;;
21420;SDS011;10871;50.144;8.428;2023-01-29T08:03:44;14.93;;;10.77;;
21420;SDS011;10871;50.144;8.428;2023-01-29T08:06:10;19.27;;;12.23;;
21420;SDS011;10871;50.144;8.428;2023-01-29T08:08:37;20.20;;;12.68;;
21420;SDS011;10871;50.144;8.428;2023-01-29T08:11:03;18.15;;;12.57;;
21420;SDS011;10871;50.144;8.428;2023-01-29T08:13:30;19.48;;;13.20;;
21420;SDS011;10871;50.144;8.428;2023-01-29T08:15:58;19.92;;;13.45;;
21420;SDS011;10871;50.144;8.428;2023-01-29T08:18:25;20.92;;;12.95;;
21420;SDS011;10871;50.144;8.428;2023-01-29T08:20:51;19.27;;;12.48;;
21420;SDS011;10871;50.144;8.428;2023-01-29T08:23:18;19.63;;;13.60;;
21420;SDS011;10871;50.144;8.428;2023-01-29T08:25:44;19.55;;;12.68;;
21420;SDS011;10871;50.144;8.428;2023-01-29T08:28:10;19.75;;;13.15;;
21420;SDS011;10871;50.144;8.428;2023-01-29T08:30:38;19.38;;;12.68;;
21420;SDS011;10871;50.144;8.428;2023-01-29T08:33:04;16.58;;;11.85;;
21420;SDS011;10871;50.144;8.428;2023-01-29T08:35:31;18.27;;;11.90;;
21420;SDS011;10871;50.144;8.428;2023-01-29T08:37:58;18.95;;;12.77;;
21420;SDS011;10871;50.144;8.428;2023-01-29T08:40:29;22.00;;;13.07;;
21420;SDS011;10871;50.144;8.428;2023-01-29T08:42:59;21.13;;;13.35;;
21420;SDS011;10871;50.144;8.428;2023-01-29T08:45:28;22.13;;;13.82;;
21420;SDS011;10871;50.144;8.428;2023-01-29T08:47:55;21.30;;;12.90;;
21420;SDS011;10871;50.144;8.428;2023-01-29T08:50:21;21.75;;;12.98;;
21420;SDS011;10871;50.144;8.428;2023-01-29T08:52:47;18.33;;;12.75;;
21420;SDS011;10871;50.144;8.428;2023-01-29T08:55:14;20.75;;;13.40;;
21420;SDS011;10871;50.144;8.428;2023-01-29T08:57:41;22.08;;;13.13;;
21420;SDS011;10871;50.144;8.428;2023-01-29T09:00:07;24.95;;;14.82;;
21420;SDS011;10871;50.144;8.428;2023-01-29T09:02:34;21.02;;;13.30;;
21420;SDS011;10871;50.144;8.428;2023-01-29T09:05:01;21.92;;;14.05;;
21420;SDS011;10871;50.144;8.428;2023-01-29T09:07:28;21.73;;;14.35;;
21420;SDS011;10871;50.144;8.428;2023-01-29T09:09:54;22.40;;;14.65;;
21420;SDS011;10871;50.144;8.428;2023-01-29T09:12:20;22.73;;;14.40;;
21420;SDS011;10871;50.144;8.428;2023-01-29T09:14:47;20.50;;;13.63;;
21420;SDS011;10871;50.144;8.428;2023-01-29T09:17:13;22.52;;;14.68;;
21420;SDS011;10871;50.144;8.428;2023-01-29T09:19:40;26.52;;;15.13;;
21420;SDS011;10871;50.144;8.428;2023-01-29T09:22:06;26.38;;;16.02;;
21420;SDS011;10871;50.144;8.428;2023-01-29T09:24:34;21.65;;;14.90;;
21420;SDS011;10871;50.144;8.428;2023-01-29T09:27:00;25.58;;;14.73;;
21420;SDS011;10871;50.144;8.428;2023-01-29T09:29:27;22.50;;;14.57;;
21420;SDS011;10871;50.144;8.428;2023-01-29T09:31:53;21.73;;;14.30;;
21420;SDS011;10871;50.144;8.428;2023-01-29T09:34:20;23.33;;;14.02;;
21420;SDS011;10871;50.144;8.428;2023-01-29T09:36:46;25.38;;;15.18;;
21420;SDS011;10871;50.144;8.428;2023-01-29T09:39:12;24.38;;;15.43;;
21420;SDS011;10871;50.144;8.428;2023-01-29T09:41:47;22.05;;;14.65;;
21420;SDS011;10871;50.144;8.428;2023-01-29T09:47:13;26.77;;;16.55;;
21420;SDS011;10871;50.144;8.428;2023-01-29T09:49:42;26.02;;;15.57;;
21420;SDS011;10871;50.144;8.428;2023-01-29T09:52:16;24.58;;;14.90;;
21420;SDS011;10871;50.144;8.428;2023-01-29T09:55:06;20.67;;;13.60;;
21420;SDS011;10871;50.144;8.428;2023-01-29T10:00:03;24.50;;;15.35;;
21420;SDS011;10871;50.144;8.428;2023-01-29T10:02:41;23.35;;;15.02;;
21420;SDS011;10871;50.144;8.428;2023-01-29T10:05:24;24.45;;;15.02;;
21420;SDS011;10871;50.144;8.428;2023-01-29T10:23:23;22.75;;;13.82;;
21420;SDS011;10871;50.144;8.428;2023-01-29T10:25:52;21.00;;;13.48;;
21420;SDS011;10871;50.144;8.428;2023-01-29T10:28:39;21.08;;;13.95;;
21420;SDS011;10871;50.144;8.428;2023-01-29T10:31:09;21.20;;;14.10;;
21420;SDS011;10871;50.144;8.428;2023-01-29T10:33:40;21.73;;;14.15;;
21420;SDS011;10871;50.144;8.428;2023-01-29T10:36:27;19.77;;;13.73;;
21420;SDS011;10871;50.144;8.428;2023-01-29T10:38:57;21.05;;;13.98;;
21420;SDS011;10871;50.144;8.428;2023-01-29T10:58:12;20.55;;;13.48;;
21420;SDS011;10871;50.144;8.428;2023-01-29T11:00:23;19.63;;;12.90;;
21420;SDS011;10871;50.144;8.428;2023-01-29T11:02:50;20.58;;;13.40;;
21420;SDS011;10871;50.144;8.428;2023-01-29T11:05:28;16.98;;;12.40;;
21420;SDS011;10871;50.144;8.428;2023-01-29T11:07:59;15.38;;;11.68;;
21420;SDS011;10871;50.144;8.428;2023-01-29T11:10:26;15.98;;;12.07;;
21420;SDS011;10871;50.144;8.428;2023-01-29T11:12:54;18.50;;;12.75;;
21420;SDS011;10871;50.144;8.428;2023-01-29T11:15:23;15.48;;;12.23;;
21420;SDS011;10871;50.144;8.428;2023-01-29T11:18:01;15.48;;;11.40;;
21420;SDS011;10871;50.144;8.428;2023-01-29T11:20:28;13.15;;;10.75;;
21420;SDS011;10871;50.144;8.428;2023-01-29T11:22:55;13.43;;;10.60;;
21420;SDS011;10871;50.144;8.428;2023-01-29T11:25:21;13.25;;;10.02;;
21420;SDS011;10871;50.144;8.428;2023-01-29T11:27:48;13.57;;;9.85;;
21420;SDS011;10871;50.144;8.428;2023-01-29T11:30:19;14.15;;;10.20;;
21420;SDS011;10871;50.144;8.428;2023-01-29T11:32:50;15.43;;;10.68;;
21420;SDS011;10871;50.144;8.428;2023-01-29T11:35:22;14.02;;;10.50;;
21420;SDS011;10871;50.144;8.428;2023-01-29T11:37:49;11.70;;;9.43;;
21420;SDS011;10871;50.144;8.428;2023-01-29T11:42:45;11.20;;;9.50;;
21420;SDS011;10871;50.144;8.428;2023-01-29T11:47:47;13.65;;;10.25;;
21420;SDS011;10871;50.144;8.428;2023-01-29T11:50:18;14.15;;;9.82;;
21420;SDS011;10871;50.144;8.428;2023-01-29T11:52:46;10.70;;;8.68;;
21420;SDS011;10871;50.144;8.428;2023-01-29T11:57:42;10.25;;;8.02;;
21420;SDS011;10871;50.144;8.428;2023-01-29T12:00:21;9.70;;;8.52;;
21420;SDS011;10871;50.144;8.428;2023-01-29T12:02:55;10.25;;;8.70;;
21420;SDS011;10871;50.144;8.428;2023-01-29T12:05:23;10.35;;;8.48;;
21420;SDS011;10871;50.144;8.428;2023-01-29T12:07:50;12.60;;;9.40;;
21420;SDS011;10871;50.144;8.428;2023-01-29T12:10:31;9.95;;;8.88;;
21420;SDS011;10871;50.144;8.428;2023-01-29T12:15:45;13.23;;;9.38;;
21420;SDS011;10871;50.144;8.428;2023-01-29T12:20:58;11.75;;;8.75;;
21420;SDS011;10871;50.144;8.428;2023-01-29T12:23:39;11.05;;;8.65;;
21420;SDS011;10871;50.144;8.428;2023-01-29T12:26:15;11.63;;;8.63;;
21420;SDS011;10871;50.144;8.428;2023-01-29T12:28:49;12.00;;;8.70;;
21420;SDS011;10871;50.144;8.428;2023-01-29T12:38:44;9.48;;;8.27;;
21420;SDS011;10871;50.144;8.428;2023-01-29T12:43:53;10.65;;;9.23;;
21420;SDS011;10871;50.144;8.428;2023-01-29T12:46:27;10.45;;;9.27;;
21420;SDS011;10871;50.144;8.428;2023-01-29T12:48:54;12.05;;;9.68;;
21420;SDS011;10871;50.144;8.428;2023-01-29T12:51:23;12.23;;;10.18;;
21420;SDS011;10871;50.144;8.428;2023-01-29T12:53:58;13.15;;;9.23;;
21420;SDS011;10871;50.144;8.428;2023-01-29T12:56:35;12.95;;;9.75;;
21420;SDS011;10871;50.144;8.428;2023-01-29T12:59:25;11.35;;;9.48;;
21420;SDS011;10871;50.144;8.428;2023-01-29T13:01:51;10.95;;;8.95;;
21420;SDS011;10871;50.144;8.428;2023-01-29T13:07:13;13.00;;;9.50;;
21420;SDS011;10871;50.144;8.428;2023-01-29T13:09:42;11.75;;;9.45;;
21420;SDS011;10871;50.144;8.428;2023-01-29T13:12:13;14.82;;;10.10;;
21420;SDS011;10871;50.144;8.428;2023-01-29T13:17:13;11.18;;;8.75;;
21420;SDS011;10871;50.144;8.428;2023-01-29T13:19:41;11.65;;;9.35;;
21420;SDS011;10871;50.144;8.428;2023-01-29T13:22:18;10.38;;;8.88;;
21420;SDS011;10871;50.144;8.428;2023-01-29T13:24:45;11.90;;;8.60;;
21420;SDS011;10871;50.144;8.428;2023-01-29T13:27:29;9.20;;;8.18;;
21420;SDS011;10871;50.144;8.428;2023-01-29T13:29:56;8.88;;;7.97;;
21420;SDS011;10871;50.144;8.428;2023-01-29T13:32:24;10.18;;;7.97;;
21420;SDS011;10871;50.144;8.428;2023-01-29T13:34:51;9.32;;;8.32;;
21420;SDS011;10871;50.144;8.428;2023-01-29T13:39:49;9.52;;;8.52;;
21420;SDS011;10871;50.144;8.428;2023-01-29T13:42:20;10.75;;;8.20;;
21420;SDS011;10871;50.144;8.428;2023-01-29T13:44:48;9.70;;;8.70;;
21420;SDS011;10871;50.144;8.428;2023-01-29T13:47:23;10.00;;;9.00;;
21420;SDS011;10871;50.144;8.428;2023-01-29T13:50:01;9.93;;;9.00;;
21420;SDS011;10871;50.144;8.428;2023-01-29T13:52:30;11.02;;;9.95;;
21420;SDS011;10871;50.144;8.428;2023-01-29T13:55:06;10.15;;;9.15;;
21420;SDS011;10871;50.144;8.428;2023-01-29T13:59:59;10.77;;;9.07;;
21420;SDS011;10871;50.144;8.428;2023-01-29T14:02:26;10.88;;;9.60;;
21420;SDS011;10871;50.144;8.428;2023-01-29T14:10:14;11.15;;;9.90;;
21420;SDS011;10871;50.144;8.428;2023-01-29T14:12:41;10.90;;;9.20;;
21420;SDS011;10871;50.144;8.428;2023-01-29T14:15:16;11.10;;;9.85;;
21420;SDS011;10871;50.144;8.428;2023-01-29T14:18:20;10.48;;;9.38;;
21420;SDS011;10871;50.144;8.428;2023-01-29T14:20:40;12.63;;;9.88;;
21420;SDS011;10871;50.144;8.428;2023-01-29T14:23:19;11.30;;;9.52;;
21420;SDS011;10871;50.144;8.428;2023-01-29T14:25:46;11.95;;;9.27;;
21420;SDS011;10871;50.144;8.428;2023-01-29T14:28:14;12.05;;;10.18;;
21420;SDS011;10871;50.144;8.428;2023-01-29T14:30:44;12.48;;;10.05;;
21420;SDS011;10871;50.144;8.428;2023-01-29T14:33:45;11.70;;;9.82;;
21420;SDS011;10871;50.144;8.428;2023-01-29T14:36:13;11.38;;;10.07;;
21420;SDS011;10871;50.144;8.428;2023-01-29T14:38:45;12.10;;;9.85;;
21420;SDS011;10871;50.144;8.428;2023-01-29T14:43:45;17.08;;;13.35;;
21420;SDS011;10871;50.144;8.428;2023-01-29T14:48:56;11.93;;;9.82;;
21420;SDS011;10871;50.144;8.428;2023-01-29T14:51:22;13.02;;;10.07;;
21420;SDS011;10871;50.144;8.428;2023-01-29T14:53:55;11.57;;;9.85;;
21420;SDS011;10871;50.144;8.428;2023-01-29T14:56:28;10.85;;;8.20;;
21420;SDS011;10871;50.144;8.428;2023-01-29T15:02:00;12.82;;;9.93;;
21420;SDS011;10871;50.144;8.428;2023-01-29T15:04:40;12.48;;;9.68;;
21420;SDS011;10871;50.144;8.428;2023-01-29T15:09:40;14.70;;;10.38;;
21420;SDS011;10871;50.144;8.428;2023-01-29T15:12:18;15.43;;;10.00;;
21420;SDS011;10871;50.144;8.428;2023-01-29T15:14:49;13.35;;;10.32;;
21420;SDS011;10871;50.144;8.428;2023-01-29T15:17:19;15.20;;;10.82;;
21420;SDS011;10871;50.144;8.428;2023-01-29T15:19:47;14.20;;;9.93;;
21420;SDS011;10871;50.144;8.428;2023-01-29T15:22:14;13.40;;;9.77;;
21420;SDS011;10871;50.144;8.428;2023-01-29T15:24:42;12.63;;;9.00;;
21420;SDS011;10871;50.144;8.428;2023-01-29T15:27:10;12.45;;;9.65;;
21420;SDS011;10871;50.144;8.428;2023-01-29T15:29:37;12.63;;;9.60;;
21420;SDS011;10871;50.144;8.428;2023-01-29T15:32:04;13.55;;;9.73;;
21420;SDS011;10871;50.144;8.428;2023-01-29T15:34:31;14.20;;;10.25;;
21420;SDS011;10871;50.144;8.428;2023-01-29T15:36:57;15.13;;;10.45;;
21420;SDS011;10871;50.144;8.428;2023-01-29T15:39:24;13.07;;;9.63;;
21420;SDS011;10871;50.144;8.428;2023-01-29T15:42:03;12.90;;;9.52;;
21420;SDS011;10871;50.144;8.428;2023-01-29T15:44:29;13.75;;;9.93;;
21420;SDS011;10871;50.144;8.428;2023-01-29T15:46:57;14.23;;;9.90;;
21420;SDS011;10871;50.144;8.428;2023-01-29T15:49:28;14.68;;;10.55;;
21420;SDS011;10871;50.144;8.428;2023-01-29T15:51:55;15.95;;;10.52;;
21420;SDS011;10871;50.144;8.428;2023-01-29T15:54:22;12.68;;;9.80;;
21420;SDS011;10871;50.144;8.428;2023-01-29T15:56:50;15.85;;;11.10;;
21420;SDS011;10871;50.144;8.428;2023-01-29T15:59:17;18.00;;;11.05;;
21420;SDS011;10871;50.144;8.428;2023-01-29T16:01:44;14.40;;;10.07;;
21420;SDS011;10871;50.144;8.428;2023-01-29T16:04:15;16.05;;;11.15;;
21420;SDS011;10871;50.144;8.428;2023-01-29T16:06:43;19.05;;;11.40;;
21420;SDS011;10871;50.144;8.428;2023-01-29T16:09:14;15.25;;;10.85;;
21420;SDS011;10871;50.144;8.428;2023-01-29T16:11:42;16.33;;;10.93;;
21420;SDS011;10871;50.144;8.428;2023-01-29T16:14:10;14.90;;;11.15;;
21420;SDS011;10871;50.144;8.428;2023-01-29T16:16:38;16.17;;;11.63;;
21420;SDS011;10871;50.144;8.428;2023-01-29T16:19:12;15.63;;;11.70;;
21420;SDS011;10871;50.144;8.428;2023-01-29T16:21:39;16.33;;;11.35;;
21420;SDS011;10871;50.144;8.428;2023-01-29T16:24:09;14.30;;;10.65;;
21420;SDS011;10871;50.144;8.428;2023-01-29T16:26:38;18.60;;;12.30;;
21420;SDS011;10871;50.144;8.428;2023-01-29T16:29:08;20.00;;;14.00;;
21420;SDS011;10871;50.144;8.428;2023-01-29T16:31:35;23.25;;;16.40;;
21420;SDS011;10871;50.144;8.428;2023-01-29T16:34:12;25.58;;;16.70;;
21420;SDS011;10871;50.144;8.428;2023-01-29T16:36:43;27.65;;;16.98;;
21420;SDS011;10871;50.144;8.428;2023-01-29T16:39:16;26.08;;;17.23;;
21420;SDS011;10871;50.144;8.428;2023-01-29T16:41:43;33.50;;;22.55;;
21420;SDS011;10871;50.144;8.428;2023-01-29T16:46:46;31.48;;;19.60;;
21420;SDS011;10871;50.144;8.428;2023-01-29T16:51:54;37.75;;;22.45;;
21420;SDS011;10871;50.144;8.428;2023-01-29T16:54:24;31.08;;;20.92;;
21420;SDS011;10871;50.144;8.428;2023-01-29T16:56:52;29.23;;;19.02;;
21420;SDS011;10871;50.144;8.428;2023-01-29T16:59:20;31.75;;;20.42;;
21420;SDS011;10871;50.144;8.428;2023-01-29T17:01:52;33.50;;;19.83;;
21420;SDS011;10871;50.144;8.428;2023-01-29T17:04:19;30.70;;;19.70;;